createdAt,value
2019-03-05T08:35:24.916Z,96810.30
2019-03-05T08:37:51.708Z,96823.13
2019-03-05T08:40:18.365Z,96823.58
2019-03-05T08:42:45.128Z,96831.30
2019-03-05T08:45:12.809Z,96834.68
2019-03-05T08:47:39.474Z,96835.17
2019-03-05T08:50:07.604Z,96837.62
2019-03-05T08:52:34.440Z,96830.55
2019-03-05T08:55:03.570Z,96838.31
2019-03-05T08:57:30.221Z,96838.31
2019-03-05T08:59:57.028Z,96855.73
2019-03-05T09:02:23.595Z,96842.01
2019-03-05T09:04:50.276Z,96848.36
2019-03-05T09:07:17.195Z,96842.60
2019-03-05T09:09:43.861Z,96853.46
2019-03-05T09:12:11.066Z,96841.47
2019-03-05T09:14:37.725Z,96832.43
2019-03-05T09:17:04.625Z,96830.86
2019-03-05T09:19:31.452Z,96839.25
2019-03-05T09:21:58.213Z,96836.84
2019-03-05T09:24:24.863Z,96835.50
2019-03-05T09:26:54.122Z,96833.55
2019-03-05T09:29:20.779Z,96832.84
2019-03-05T09:31:47.661Z,96840.02
2019-03-05T09:34:14.486Z,96828.47
2019-03-05T09:36:51.014Z,96822.28
2019-03-05T09:39:12.812Z,96824.50
2019-03-05T09:41:39.584Z,96822.86
2019-03-05T09:44:06.577Z,96818.33
2019-03-05T09:46:33.411Z,96824.69
2019-03-05T09:49:00.196Z,96823.92
2019-03-05T09:51:26.972Z,96812.03
2019-03-05T09:53:53.629Z,96817.44
2019-03-05T09:56:20.607Z,96812.79
2019-03-05T09:58:47.305Z,96807.16
2019-03-05T10:01:14.151Z,96811.14
2019-03-05T10:03:40.808Z,96820.17
2019-03-05T10:06:07.604Z,96821.72
2019-03-05T10:08:34.366Z,96828.25
2019-03-05T10:11:01.206Z,96826.30
2019-03-05T10:13:29.082Z,96821.75
2019-03-05T10:15:55.931Z,96820.94
2019-03-05T10:18:22.643Z,96819.48
2019-03-05T10:20:49.289Z,96818.32
2019-03-05T10:23:16.119Z,96816.87
2019-03-05T10:25:42.777Z,96817.25
2019-03-05T10:28:09.549Z,96810.09
2019-03-05T10:30:36.771Z,96812.39
2019-03-05T10:33:04.287Z,96805.90
2019-03-05T10:35:31.062Z,96813.78
2019-03-05T10:37:59.452Z,96800.96
2019-03-05T10:40:29.154Z,96800.41
2019-03-05T10:42:55.795Z,96787.20
2019-03-05T10:45:22.589Z,96789.64
2019-03-05T10:47:50.705Z,96786.90
2019-03-05T10:50:19.939Z,96778.95
2019-03-05T10:52:46.720Z,96763.45
2019-03-05T10:55:13.462Z,96767.65
2019-03-05T10:57:40.373Z,96760.66
2019-03-05T11:00:11.083Z,96766.91
2019-03-05T11:02:37.650Z,96771.88
2019-03-05T11:05:04.740Z,96758.12
2019-03-05T11:07:31.594Z,96762.30
2019-03-05T11:09:58.376Z,96761.36
2019-03-05T11:12:25.173Z,96755.22
2019-03-05T11:14:51.919Z,96761.59
2019-03-05T11:17:18.573Z,96758.32
2019-03-05T11:19:45.348Z,96760.50
2019-03-05T11:22:12.118Z,96763.28
2019-03-05T11:24:38.885Z,96764.38
2019-03-05T11:27:06.712Z,96744.66
2019-03-05T11:29:33.412Z,96769.03
2019-03-05T11:32:00.313Z,96749.39
2019-03-05T11:34:26.996Z,96742.45
2019-03-05T11:36:53.863Z,96750.72
2019-03-05T11:39:20.626Z,96746.42
2019-03-05T11:41:47.294Z,96744.36
2019-03-05T11:44:13.951Z,96758.06
2019-03-05T11:46:40.607Z,96736.61
2019-03-05T11:49:07.440Z,96746.69
2019-03-05T11:51:34.126Z,96759.30
2019-03-05T11:54:01.057Z,96756.66
2019-03-05T11:56:27.829Z,96758.07
2019-03-05T11:58:54.744Z,96785.31
2019-03-05T12:01:25.776Z,96748.52
2019-03-05T12:03:52.775Z,96750.73
2019-03-05T12:06:19.551Z,96741.14
2019-03-05T12:08:46.312Z,96745.34
2019-03-05T12:11:13.207Z,96747.99
2019-03-05T12:13:39.969Z,96767.52
2019-03-05T12:16:09.660Z,96750.14
2019-03-05T12:18:36.508Z,96762.41
2019-03-05T12:21:03.317Z,96762.91
2019-03-05T12:23:30.173Z,96763.50
2019-03-05T12:25:56.871Z,96774.88
2019-03-05T12:28:23.752Z,96756.77
2019-03-05T12:30:50.462Z,96751.19
2019-03-05T12:33:17.339Z,96760.21
2019-03-05T12:35:44.146Z,96768.11
2019-03-05T12:38:10.983Z,96753.09
2019-03-05T12:40:38.181Z,96750.59
2019-03-05T12:43:06.790Z,96755.33
2019-03-05T12:45:33.564Z,96761.86
2019-03-05T12:48:00.380Z,96773.20
2019-03-05T12:50:27.212Z,96774.52
2019-03-05T12:52:54.059Z,96789.16
2019-03-05T12:55:20.807Z,96778.76
2019-03-05T12:57:47.564Z,96771.09
2019-03-05T13:00:17.362Z,96754.94
2019-03-05T13:02:44.180Z,96735.14
2019-03-05T13:05:12.290Z,96735.55
2019-03-05T13:07:41.882Z,96730.13
2019-03-05T13:10:10.301Z,96731.43
2019-03-05T13:12:39.984Z,96733.25
2019-03-05T13:15:07.900Z,96733.28
2019-03-05T13:17:34.726Z,96737.48
2019-03-05T13:20:01.644Z,96727.76
2019-03-05T13:22:28.898Z,96731.25
2019-03-05T13:24:57.619Z,96732.37
2019-03-05T13:27:24.345Z,96721.72
2019-03-05T13:29:51.400Z,96721.63
2019-03-05T13:32:20.843Z,96725.91
2019-03-05T13:34:46.848Z,96727.02
2019-03-05T13:37:13.415Z,96721.45
2019-03-05T13:39:40.209Z,96723.45
2019-03-05T13:42:07.970Z,96727.30
2019-03-05T13:44:35.115Z,96732.09
2019-03-05T13:47:05.876Z,96751.03
2019-03-05T13:50:24.204Z,96745.80
2019-03-05T13:53:34.772Z,96767.84
2019-03-05T13:56:30.673Z,96785.76
2019-03-05T13:59:27.944Z,96785.17
2019-03-05T14:01:54.822Z,96798.44
2019-03-05T14:04:29.939Z,96816.77
2019-03-05T14:07:15.643Z,96811.20
2019-03-05T14:09:41.592Z,96810.47
2019-03-05T14:12:08.466Z,96806.48
2019-03-05T14:14:35.234Z,96796.42
2019-03-05T14:17:09.856Z,96800.77
2019-03-05T14:19:36.735Z,96804.59
2019-03-05T14:22:03.561Z,96801.95
2019-03-05T14:24:30.289Z,96804.36
2019-03-05T14:26:57.123Z,96799.20
2019-03-05T14:29:23.861Z,96812.52
2019-03-05T14:31:50.685Z,96808.25
2019-03-05T14:34:17.407Z,96806.90
2019-03-05T14:36:44.205Z,96805.84
2019-03-05T14:39:20.415Z,96802.61
2019-03-05T14:41:47.242Z,96805.86
2019-03-05T14:44:14.298Z,96801.55
2019-03-05T14:46:41.456Z,96805.83
2019-03-05T14:49:08.321Z,96807.17
2019-03-05T14:51:34.974Z,96806.11
2019-03-05T14:54:01.775Z,96817.25
2019-03-05T14:56:28.569Z,96808.63
2019-03-05T14:58:55.324Z,96818.67
2019-03-05T15:01:22.135Z,96821.16
2019-03-05T15:03:49.019Z,96816.60
2019-03-05T15:06:15.939Z,96819.36
2019-03-05T15:08:42.606Z,96827.75
2019-03-05T15:11:09.414Z,96819.12
2019-03-05T15:13:36.098Z,96823.75
2019-03-05T15:16:02.896Z,96817.28
2019-03-05T15:18:29.960Z,96828.34
2019-03-05T15:20:56.812Z,96834.56
2019-03-05T15:23:23.627Z,96828.92
2019-03-05T15:25:55.678Z,96840.25
2019-03-05T15:28:22.538Z,96837.53
2019-03-05T15:30:49.252Z,96845.06
2019-03-05T15:33:17.052Z,96846.16
2019-03-05T15:35:43.820Z,96829.16
2019-03-05T15:38:10.603Z,96843.95
2019-03-05T15:40:37.547Z,96847.16
2019-03-05T15:43:04.364Z,96840.16
2019-03-05T15:45:31.063Z,96846.05
2019-03-05T15:47:57.946Z,96844.69
2019-03-05T15:50:24.754Z,96842.25
2019-03-05T15:52:51.550Z,96851.14
2019-03-05T15:55:18.259Z,96839.56
2019-03-05T15:57:46.147Z,96840.63
2019-03-05T16:00:17.833Z,96836.86
2019-03-05T16:02:51.658Z,96849.23
2019-03-05T16:05:20.750Z,96850.54
2019-03-05T16:07:48.097Z,96855.65
2019-03-05T16:10:17.191Z,96860.75
2019-03-05T16:12:43.840Z,96860.45
2019-03-05T16:15:10.789Z,96868.25
2019-03-05T16:17:37.589Z,96880.06
2019-03-05T16:20:04.943Z,96884.40
2019-03-05T16:22:31.627Z,96875.48
2019-03-05T16:24:58.319Z,96877.34
2019-03-05T16:27:24.882Z,96875.46
2019-03-05T16:29:55.407Z,96868.45
2019-03-05T16:32:28.229Z,96865.72
2019-03-05T16:35:32.673Z,96873.52
2019-03-05T16:38:07.647Z,96872.41
2019-03-05T16:41:00.020Z,96876.43
2019-03-05T16:43:49.009Z,96891.51
2019-03-05T16:46:32.502Z,96892.33
2019-03-05T16:49:18.826Z,96896.63
2019-03-05T16:51:50.680Z,96903.05
2019-03-05T16:54:33.799Z,96901.97
2019-03-05T16:57:05.971Z,96906.27
2019-03-05T16:59:53.211Z,96916.19
2019-03-05T17:02:47.365Z,96923.19
2019-03-05T17:05:35.156Z,96924.80
2019-03-05T17:08:19.913Z,96929.89
2019-03-05T17:11:18.570Z,96932.03
2019-03-05T17:13:45.472Z,96941.19
2019-03-05T17:16:12.388Z,96938.75
2019-03-05T17:18:39.158Z,96942.26
2019-03-05T17:21:05.937Z,96948.75
2019-03-05T17:23:32.880Z,96950.38
2019-03-05T17:25:59.623Z,96954.69
2019-03-05T17:28:26.389Z,96974.08
2019-03-05T17:30:53.027Z,96981.33
2019-03-05T17:33:19.829Z,96990.47
2019-03-05T17:35:46.462Z,96989.89
2019-03-05T17:38:13.316Z,96994.50
2019-03-05T17:40:40.166Z,96998.27
2019-03-05T17:43:06.819Z,97006.08
2019-03-05T17:45:33.644Z,97006.91
2019-03-05T17:48:00.323Z,97016.33
2019-03-05T17:50:27.103Z,97027.07
2019-03-05T17:52:53.753Z,97026.23
2019-03-05T17:55:24.162Z,97030.02
2019-03-05T17:57:49.287Z,97031.08
2019-03-05T18:00:25.085Z,97033.75
2019-03-05T18:02:51.898Z,97031.59
2019-03-05T18:05:19.121Z,97039.08
2019-03-05T18:07:46.011Z,97046.03
2019-03-05T18:10:12.763Z,97056.22
2019-03-05T18:12:39.632Z,97058.36
2019-03-05T18:15:07.309Z,97056.50
2019-03-05T18:17:34.118Z,97051.15
2019-03-05T18:20:00.912Z,97061.16
2019-03-05T18:22:27.544Z,97064.15
2019-03-05T18:24:54.114Z,97062.27
2019-03-05T18:27:20.778Z,97062.30
2019-03-05T18:29:47.517Z,97066.36
2019-03-05T18:32:14.178Z,97065.27
2019-03-05T18:34:40.750Z,97076.00
2019-03-05T18:37:07.420Z,97080.83
2019-03-05T18:39:34.061Z,97085.11
2019-03-05T18:42:00.822Z,97089.09
2019-03-05T18:44:27.490Z,97092.06
2019-03-05T18:46:54.265Z,97098.48
2019-03-05T18:49:21.230Z,97105.48
2019-03-05T18:51:47.864Z,97111.17
2019-03-05T18:54:14.546Z,97107.39
2019-03-05T18:56:41.296Z,97115.48
2019-03-05T18:59:07.987Z,97116.55
2019-03-05T19:01:34.775Z,97120.92
2019-03-05T19:04:01.471Z,97121.45
2019-03-05T19:06:28.298Z,97129.00
2019-03-05T19:08:55.088Z,97131.12
2019-03-05T19:11:21.925Z,97131.12
2019-03-05T19:13:48.694Z,97140.54
2019-03-05T19:16:15.501Z,97142.08
2019-03-05T19:18:42.278Z,97139.11
2019-03-05T19:21:09.003Z,97140.73
2019-03-05T19:23:35.979Z,97149.55
2019-03-05T19:26:03.141Z,97157.59
2019-03-05T19:28:29.907Z,97166.44
2019-03-05T19:30:56.709Z,97169.06
2019-03-05T19:33:23.298Z,97167.41
2019-03-05T19:35:49.957Z,97167.05
2019-03-05T19:38:16.938Z,97171.55
2019-03-05T19:40:43.743Z,97175.86
2019-03-05T19:43:10.492Z,97184.09
2019-03-05T19:45:37.178Z,97194.73
2019-03-05T19:48:03.981Z,97194.63
2019-03-05T19:50:30.867Z,97199.88
2019-03-05T19:52:57.934Z,97202.23
2019-03-05T19:55:24.747Z,97195.97
2019-03-05T19:57:53.318Z,97195.72
2019-03-05T20:00:30.098Z,97198.86
2019-03-05T20:02:56.792Z,97204.44
2019-03-05T20:05:23.536Z,97201.47
2019-03-05T20:07:50.296Z,97197.97
2019-03-05T20:10:18.396Z,97202.47
2019-03-05T20:12:45.184Z,97201.00
2019-03-05T20:15:13.346Z,97201.11
2019-03-05T20:17:40.173Z,97203.90
2019-03-05T20:20:07.799Z,97204.24
2019-03-05T20:22:34.568Z,97206.55
2019-03-05T20:25:01.492Z,97207.30
2019-03-05T20:27:28.161Z,97206.73
2019-03-05T20:29:55.010Z,97215.21
2019-03-05T20:32:22.071Z,97226.14
2019-03-05T20:34:49.068Z,97233.84
2019-03-05T20:37:16.995Z,97236.43
2019-03-05T20:39:43.840Z,97237.08
2019-03-05T20:42:10.550Z,97242.00
2019-03-05T20:44:37.317Z,97238.58
2019-03-05T20:47:04.626Z,97251.28
2019-03-05T20:49:33.699Z,97255.13
2019-03-05T20:52:00.629Z,97254.50
2019-03-05T20:54:28.513Z,97253.09
2019-03-05T20:56:55.271Z,97264.34
2019-03-05T20:59:23.036Z,97257.64
2019-03-05T21:01:51.993Z,97264.92
2019-03-05T21:04:25.953Z,97265.80
2019-03-05T21:06:53.961Z,97272.37
2019-03-05T21:09:22.278Z,97276.34
2019-03-05T21:11:49.297Z,97283.20
2019-03-05T21:14:16.167Z,97280.72
2019-03-05T21:16:42.921Z,97284.67
2019-03-05T21:19:09.735Z,97286.36
2019-03-05T21:21:36.656Z,97288.37
2019-03-05T21:24:03.634Z,97293.13
2019-03-05T21:26:31.075Z,97298.61
2019-03-05T21:28:57.927Z,97290.92
2019-03-05T21:31:24.847Z,97298.50
2019-03-05T21:33:52.048Z,97290.54
2019-03-05T21:36:18.937Z,97299.75
2019-03-05T21:38:45.702Z,97300.09
2019-03-05T21:41:12.452Z,97300.18
2019-03-05T21:43:39.345Z,97293.95
2019-03-05T21:46:10.329Z,97291.50
2019-03-05T21:48:39.617Z,97296.48
2019-03-05T21:51:07.437Z,97299.94
2019-03-05T21:53:34.278Z,97293.28
2019-03-05T21:56:01.002Z,97289.16
2019-03-05T21:58:27.839Z,97288.47
2019-03-05T22:00:54.624Z,97283.77
2019-03-05T22:03:21.403Z,97285.20
2019-03-05T22:05:48.129Z,97287.77
2019-03-05T22:08:15.034Z,97294.42
2019-03-05T22:10:41.896Z,97294.14
2019-03-05T22:13:08.816Z,97297.88
2019-03-05T22:15:35.938Z,97294.85
2019-03-05T22:18:02.956Z,97298.64
2019-03-05T22:20:30.101Z,97301.22
2019-03-05T22:22:57.269Z,97300.88
2019-03-05T22:25:24.159Z,97304.53
2019-03-05T22:27:51.112Z,97308.11
2019-03-05T22:30:21.915Z,97305.79
2019-03-05T22:32:48.701Z,97307.02
2019-03-05T22:35:16.355Z,97311.25
2019-03-05T22:37:43.248Z,97311.72
2019-03-05T22:40:10.177Z,97309.69
2019-03-05T22:42:36.860Z,97312.48
2019-03-05T22:45:04.290Z,97314.70
2019-03-05T22:47:31.022Z,97316.80
2019-03-05T22:49:57.984Z,97316.68
2019-03-05T22:52:26.259Z,97307.88
2019-03-05T22:54:53.205Z,97312.83
2019-03-05T22:57:21.316Z,97317.09
2019-03-05T22:59:48.811Z,97314.72
2019-03-05T23:02:15.478Z,97322.64
2019-03-05T23:04:43.586Z,97318.67
2019-03-05T23:07:10.816Z,97319.20
2019-03-05T23:09:37.558Z,97319.08
2019-03-05T23:12:04.341Z,97318.73
2019-03-05T23:14:31.696Z,97317.21
2019-03-05T23:16:58.460Z,97325.84
2019-03-05T23:19:25.559Z,97332.84
2019-03-05T23:21:52.320Z,97335.58
2019-03-05T23:24:19.095Z,97339.02
2019-03-05T23:26:45.775Z,97338.44
2019-03-05T23:29:12.641Z,97334.47
2019-03-05T23:31:39.871Z,97335.10
2019-03-05T23:34:06.561Z,97339.76
2019-03-05T23:36:33.482Z,97331.70
2019-03-05T23:39:00.244Z,97336.55
2019-03-05T23:41:26.935Z,97341.39
2019-03-05T23:43:53.613Z,97336.84
2019-03-05T23:46:20.333Z,97337.42
2019-03-05T23:48:47.108Z,97343.13
2019-03-05T23:51:13.985Z,97341.20
2019-03-05T23:53:40.694Z,97343.08
2019-03-05T23:56:07.329Z,97341.39
2019-03-05T23:58:33.883Z,97339.76
